createdAt,value
2022-09-15T00:00:29.899Z,99472.69
2022-09-15T00:03:00.939Z,99464.97
2022-09-15T00:05:27.380Z,99451.78
2022-09-15T00:07:53.717Z,99454.25
2022-09-15T00:10:24.811Z,99463.38
2022-09-15T00:12:51.178Z,99462.03
2022-09-15T00:15:17.625Z,99453.22
2022-09-15T00:17:49.673Z,99454.31
2022-09-15T00:20:22.474Z,99453.22
2022-09-15T00:22:49.356Z,99452.13
2022-09-15T00:25:15.798Z,99452.94
2022-09-15T00:27:42.298Z,99455.69
2022-09-15T00:30:09.062Z,99458.47
2022-09-15T00:32:35.717Z,99454.91
2022-09-15T00:35:07.236Z,99454.06
2022-09-15T00:37:34.163Z,99448.53
2022-09-15T00:40:00.616Z,99448.53
2022-09-15T00:42:27.008Z,99446.88
2022-09-15T00:44:59.329Z,99441.34
2022-09-15T00:47:36.290Z,99439.13
2022-09-15T00:50:09.256Z,99442.41
2022-09-15T00:52:46.029Z,99443.75
2022-09-15T00:55:19.338Z,99440.41
2022-09-15T00:57:53.642Z,99440.66
2022-09-15T01:00:23.778Z,99442.28
2022-09-15T01:02:50.809Z,99448.34
2022-09-15T01:05:22.151Z,99445.00
2022-09-15T01:07:55.662Z,99453.78
2022-09-15T01:10:37.566Z,99451.56
2022-09-15T01:13:07.608Z,99447.72
2022-09-15T01:15:58.412Z,99448.22
2022-09-15T01:18:35.636Z,99450.41
2022-09-15T01:21:31.644Z,99451.53
2022-09-15T01:24:25.991Z,99438.81
2022-09-15T01:26:58.546Z,99439.34
2022-09-15T01:29:47.796Z,99435.16
2022-09-15T01:32:48.432Z,99440.41
2022-09-15T01:35:24.927Z,99443.13
2022-09-15T01:37:58.863Z,99443.63
2022-09-15T01:40:29.660Z,99432.28
2022-09-15T01:42:57.990Z,99435.88
2022-09-15T01:45:32.738Z,99435.88
2022-09-15T01:48:01.827Z,99430.91
2022-09-15T01:50:36.530Z,99426.47
2022-09-15T01:53:08.362Z,99423.94
2022-09-15T01:55:46.507Z,99422.31
2022-09-15T01:58:15.509Z,99416.78
2022-09-15T02:00:48.180Z,99422.00
2022-09-15T02:03:44.593Z,99420.84
2022-09-15T02:06:21.058Z,99423.59
2022-09-15T02:08:56.075Z,99418.34
2022-09-15T02:11:28.030Z,99417.19
2022-09-15T02:13:57.944Z,99419.94
2022-09-15T02:16:29.118Z,99416.34
2022-09-15T02:19:17.000Z,99410.00
2022-09-15T02:22:10.612Z,99406.69
2022-09-15T02:24:44.029Z,99417.94
2022-09-15T02:27:16.424Z,99408.88
2022-09-15T02:29:47.713Z,99406.34
2022-09-15T02:32:17.628Z,99413.53
2022-09-15T02:34:47.672Z,99414.00
2022-09-15T02:37:14.997Z,99420.13
2022-09-15T02:39:47.525Z,99411.53
2022-09-15T02:42:24.969Z,99417.28
2022-09-15T02:44:51.470Z,99431.91
2022-09-15T02:47:23.073Z,99419.78
2022-09-15T02:49:51.871Z,99436.06
2022-09-15T02:52:18.309Z,99419.50
2022-09-15T02:54:44.640Z,99417.59
2022-09-15T02:57:11.120Z,99419.50
2022-09-15T02:59:56.297Z,99410.69
2022-09-15T03:02:23.493Z,99407.69
2022-09-15T03:04:50.515Z,99413.44
2022-09-15T03:07:18.369Z,99407.09
2022-09-15T03:09:44.975Z,99408.19
2022-09-15T03:12:11.361Z,99415.38
2022-09-15T03:14:38.358Z,99409.00
2022-09-15T03:17:04.948Z,99422.78
2022-09-15T03:19:31.714Z,99418.41
2022-09-15T03:21:58.041Z,99418.94
2022-09-15T03:24:24.362Z,99426.66
2022-09-15T03:26:53.767Z,99414.53
2022-09-15T03:29:20.105Z,99418.94
2022-09-15T03:31:46.594Z,99422.28
2022-09-15T03:34:12.982Z,99418.72
2022-09-15T03:36:39.394Z,99422.53
2022-09-15T03:39:05.855Z,99424.22
2022-09-15T03:41:32.183Z,99430.53
2022-09-15T03:43:58.619Z,99423.94
2022-09-15T03:46:25.047Z,99414.00
2022-09-15T03:48:51.494Z,99428.91
2022-09-15T03:51:20.455Z,99415.69
2022-09-15T03:53:47.002Z,99424.22
2022-09-15T03:56:24.673Z,99422.28
2022-09-15T03:58:51.949Z,99420.63
2022-09-15T04:01:21.766Z,99424.22
2022-09-15T04:03:51.726Z,99424.47
2022-09-15T04:06:20.219Z,99424.47
2022-09-15T04:08:46.951Z,99435.25
2022-09-15T04:11:14.350Z,99426.97
2022-09-15T04:13:42.032Z,99431.16
2022-09-15T04:16:12.639Z,99433.94
2022-09-15T04:18:41.936Z,99425.41
2022-09-15T04:21:13.204Z,99427.31
2022-09-15T04:23:40.983Z,99433.94
2022-09-15T04:26:13.744Z,99436.44
2022-09-15T04:28:42.531Z,99436.16
2022-09-15T04:31:12.031Z,99431.72
2022-09-15T04:33:43.039Z,99434.47
2022-09-15T04:36:12.660Z,99430.94
2022-09-15T04:38:39.193Z,99433.41
2022-09-15T04:41:06.339Z,99438.09
2022-09-15T04:43:33.522Z,99432.56
2022-09-15T04:45:59.930Z,99437.56
2022-09-15T04:48:29.828Z,99429.56
2022-09-15T04:51:01.637Z,99443.06
2022-09-15T04:53:28.488Z,99446.94
2022-09-15T04:56:04.619Z,99453.28
2022-09-15T04:58:33.298Z,99467.63
2022-09-15T05:01:07.357Z,99462.66
2022-09-15T05:03:37.007Z,99469.09
2022-09-15T05:06:06.019Z,99468.81
2022-09-15T05:08:32.472Z,99470.38
2022-09-15T05:11:01.243Z,99479.72
2022-09-15T05:13:30.226Z,99480.22
2022-09-15T05:15:56.707Z,99468.88
2022-09-15T05:18:23.098Z,99463.38
2022-09-15T05:20:49.507Z,99470.25
2022-09-15T05:23:18.955Z,99473.16
2022-09-15T05:25:54.499Z,99471.50
2022-09-15T05:28:20.857Z,99476.75
2022-09-15T05:30:47.225Z,99470.59
2022-09-15T05:33:13.598Z,99469.44
2022-09-15T05:35:40.027Z,99483.78
2022-09-15T05:38:08.883Z,99488.97
2022-09-15T05:40:35.375Z,99479.78
2022-09-15T05:43:01.820Z,99485.31
2022-09-15T05:45:28.199Z,99497.16
2022-09-15T05:47:59.164Z,99493.81
2022-09-15T05:50:25.963Z,99493.47
2022-09-15T05:52:52.667Z,99492.06
2022-09-15T05:55:21.468Z,99501.75
2022-09-15T05:57:47.868Z,99503.09
2022-09-15T06:00:14.783Z,99505.84
2022-09-15T06:02:41.284Z,99510.84
2022-09-15T06:05:10.244Z,99528.22
2022-09-15T06:07:36.857Z,99526.19
2022-09-15T06:10:04.616Z,99536.72
2022-09-15T06:12:31.263Z,99540.22
2022-09-15T06:14:57.625Z,99537.38
2022-09-15T06:17:24.030Z,99542.81
2022-09-15T06:19:53.106Z,99536.13
2022-09-15T06:22:19.525Z,99532.53
2022-09-15T06:24:46.068Z,99534.97
2022-09-15T06:27:12.449Z,99542.28
2022-09-15T06:29:41.215Z,99547.31
2022-09-15T06:32:07.708Z,99548.38
2022-09-15T06:34:34.120Z,99540.84
2022-09-15T06:37:00.628Z,99555.22
2022-09-15T06:39:29.534Z,99554.50
2022-09-15T06:42:02.768Z,99546.50
2022-09-15T06:44:29.596Z,99557.75
2022-09-15T06:47:00.915Z,99550.38
2022-09-15T06:49:27.370Z,99558.59
2022-09-15T06:51:56.412Z,99572.09
2022-09-15T06:54:23.575Z,99569.00
2022-09-15T06:56:52.625Z,99569.72
2022-09-15T06:59:19.011Z,99586.72
2022-09-15T07:01:53.014Z,99590.69
2022-09-15T07:04:19.829Z,99604.34
2022-09-15T07:06:46.276Z,99618.81
2022-09-15T07:09:12.760Z,99609.72
2022-09-15T07:11:39.534Z,99615.94
2022-09-15T07:14:06.206Z,99621.81
2022-09-15T07:16:33.117Z,99609.03
2022-09-15T07:19:01.871Z,99602.50
2022-09-15T07:21:30.413Z,99624.34
2022-09-15T07:23:57.876Z,99641.44
2022-09-15T07:26:30.010Z,99626.97
2022-09-15T07:29:01.759Z,99648.19
2022-09-15T07:31:31.179Z,99641.09
2022-09-15T07:33:59.711Z,99646.31
2022-09-15T07:36:28.488Z,99649.88
2022-09-15T07:38:57.601Z,99656.13
2022-09-15T07:41:29.385Z,99656.84
2022-09-15T07:44:00.333Z,99656.84
2022-09-15T07:46:29.189Z,99672.38
2022-09-15T07:48:58.573Z,99665.44
2022-09-15T07:51:27.917Z,99671.78
2022-09-15T07:53:54.537Z,99661.41
2022-09-15T07:56:21.933Z,99668.66
2022-09-15T07:58:49.051Z,99670.34
2022-09-15T08:01:16.450Z,99669.63
2022-09-15T08:03:45.313Z,99663.66
2022-09-15T08:06:13.091Z,99670.00
2022-09-15T08:08:41.071Z,99676.41
2022-09-15T08:11:17.669Z,99682.81
2022-09-15T08:13:46.414Z,99681.41
2022-09-15T08:16:18.105Z,99678.13
2022-09-15T08:18:47.719Z,99677.72
2022-09-15T08:21:20.169Z,99676.28
2022-09-15T08:23:54.016Z,99681.88
2022-09-15T08:26:20.634Z,99679.59
2022-09-15T08:28:49.971Z,99682.22
2022-09-15T08:31:16.867Z,99691.41
2022-09-15T08:33:48.825Z,99685.78
2022-09-15T08:36:17.744Z,99696.22
2022-09-15T08:38:45.365Z,99690.59
2022-09-15T08:41:12.064Z,99692.03
2022-09-15T08:43:47.130Z,99708.69
2022-09-15T08:46:20.593Z,99709.03
2022-09-15T08:49:02.067Z,99708.19
2022-09-15T08:51:45.354Z,99711.31
2022-09-15T08:54:21.281Z,99719.56
2022-09-15T08:56:48.586Z,99720.88
2022-09-15T08:59:17.925Z,99720.38
2022-09-15T09:02:13.833Z,99725.63
2022-09-15T09:04:47.498Z,99728.84
2022-09-15T09:07:47.307Z,99731.22
2022-09-15T09:10:34.064Z,99728.47
2022-09-15T09:13:14.748Z,99738.78
2022-09-15T09:15:54.329Z,99728.28
2022-09-15T09:18:46.940Z,99730.53
2022-09-15T09:21:13.221Z,99741.53
2022-09-15T09:24:13.174Z,99736.88
2022-09-15T09:26:40.263Z,99732.56
2022-09-15T09:29:27.922Z,99735.06
2022-09-15T09:31:58.564Z,99743.22
2022-09-15T09:34:34.382Z,99738.44
2022-09-15T09:37:11.749Z,99746.41
2022-09-15T09:39:38.161Z,99744.53
2022-09-15T09:42:06.266Z,99755.50
2022-09-15T09:44:33.468Z,99750.38
2022-09-15T09:47:03.789Z,99756.00
2022-09-15T09:49:34.621Z,99744.75
2022-09-15T09:52:03.600Z,99748.59
2022-09-15T09:54:33.056Z,99757.19
2022-09-15T09:57:28.001Z,99764.38
2022-09-15T09:59:57.302Z,99761.25
2022-09-15T10:02:29.256Z,99759.25
2022-09-15T10:05:12.724Z,99757.56
2022-09-15T10:07:45.858Z,99763.09
2022-09-15T10:10:23.930Z,99767.84
2022-09-15T10:12:54.737Z,99769.75
2022-09-15T10:15:27.336Z,99770.75
2022-09-15T10:17:55.744Z,99775.50
2022-09-15T10:20:33.813Z,99771.91
2022-09-15T10:23:05.567Z,99779.94
2022-09-15T10:25:57.672Z,99775.28
2022-09-15T10:28:25.771Z,99787.97
2022-09-15T10:31:11.397Z,99778.38
2022-09-15T10:33:41.759Z,99774.66
2022-09-15T10:36:20.385Z,99780.44
2022-09-15T10:39:02.871Z,99781.84
2022-09-15T10:41:35.295Z,99788.56
2022-09-15T10:44:24.203Z,99783.50
2022-09-15T10:47:10.938Z,99782.03
2022-09-15T10:49:46.280Z,99789.00
2022-09-15T10:52:36.254Z,99787.53
2022-09-15T10:55:51.621Z,99795.22
2022-09-15T10:58:45.626Z,99789.41
2022-09-15T11:01:24.454Z,99792.97
2022-09-15T11:04:15.633Z,99791.06
2022-09-15T11:07:11.396Z,99781.91
2022-09-15T11:09:49.205Z,99778.97
2022-09-15T11:12:40.356Z,99780.56
2022-09-15T11:15:44.604Z,99792.59
2022-09-15T11:18:25.853Z,99807.06
2022-09-15T11:21:09.413Z,99795.69
2022-09-15T11:24:14.278Z,99790.75
2022-09-15T11:26:50.129Z,99804.09
2022-09-15T11:29:22.328Z,99803.38
2022-09-15T11:32:04.228Z,99793.34
2022-09-15T11:34:47.003Z,99807.88
2022-09-15T11:37:22.725Z,99804.84
2022-09-15T11:39:58.632Z,99804.78
2022-09-15T11:42:55.977Z,99796.91
2022-09-15T11:45:27.325Z,99809.41
2022-09-15T11:48:01.433Z,99809.69
2022-09-15T11:50:37.977Z,99807.72
2022-09-15T11:53:31.986Z,99810.72
2022-09-15T11:56:31.984Z,99822.41
2022-09-15T11:59:33.736Z,99823.97
2022-09-15T12:02:20.370Z,99832.25
2022-09-15T12:05:09.236Z,99826.16
2022-09-15T12:07:46.064Z,99845.06
2022-09-15T12:10:23.165Z,99830.25
2022-09-15T12:12:53.836Z,99828.84
2022-09-15T12:15:29.982Z,99826.09
2022-09-15T12:18:06.724Z,99842.91
2022-09-15T12:20:54.593Z,99836.81
2022-09-15T12:23:36.374Z,99821.69
2022-09-15T12:26:17.249Z,99828.38
2022-09-15T12:28:46.603Z,99816.91
2022-09-15T12:31:29.982Z,99819.06
2022-09-15T12:34:25.756Z,99817.28
2022-09-15T12:37:08.943Z,99824.06
2022-09-15T12:39:43.375Z,99810.00
2022-09-15T12:42:31.474Z,99828.50
2022-09-15T12:45:24.472Z,99804.44
2022-09-15T12:47:54.635Z,99809.84
2022-09-15T12:50:34.099Z,99807.09
2022-09-15T12:53:28.773Z,99807.69
2022-09-15T12:55:57.317Z,99851.03
2022-09-15T12:58:39.967Z,99810.88
2022-09-15T13:01:18.999Z,99802.69
2022-09-15T13:03:45.780Z,99822.56
2022-09-15T13:06:38.034Z,99852.38
2022-09-15T13:09:06.544Z,99811.94
2022-09-15T13:14:40.013Z,99809.47
2022-09-15T13:17:25.343Z,99836.84
2022-09-15T13:20:03.551Z,99821.16
2022-09-15T13:22:39.631Z,99832.03
2022-09-15T13:25:15.591Z,99820.97
2022-09-15T13:27:47.835Z,99845.34
2022-09-15T13:30:36.514Z,99821.81
2022-09-15T13:33:21.456Z,99812.50
2022-09-15T13:39:40.271Z,99836.44
2022-09-15T13:42:12.536Z,99834.50
2022-09-15T13:44:57.636Z,99812.84
2022-09-15T13:47:29.616Z,99816.16
2022-09-15T13:50:20.617Z,99817.34
2022-09-15T13:53:15.029Z,99809.16
2022-09-15T13:55:46.478Z,99828.19
2022-09-15T14:01:07.609Z,99823.47
2022-09-15T14:03:47.784Z,99832.75
2022-09-15T14:06:27.067Z,99813.09
2022-09-15T14:08:57.052Z,99814.44
2022-09-15T14:11:32.112Z,99818.47
2022-09-15T14:14:00.895Z,99838.16
2022-09-15T14:16:27.880Z,99845.41
2022-09-15T14:18:59.933Z,99825.19
2022-09-15T14:21:29.678Z,99834.44
2022-09-15T14:24:10.404Z,99813.22
2022-09-15T14:26:37.095Z,99828.03
2022-09-15T14:29:06.300Z,99837.81
2022-09-15T14:31:39.041Z,99838.66
2022-09-15T14:34:09.643Z,99843.97
2022-09-15T14:36:38.245Z,99831.22
2022-09-15T14:39:17.826Z,99867.50
2022-09-15T14:41:44.641Z,99844.31
2022-09-15T14:47:22.125Z,99820.28
2022-09-15T14:49:51.598Z,99837.56
2022-09-15T14:52:28.296Z,99829.94
2022-09-15T14:55:00.429Z,99832.28
2022-09-15T14:57:31.772Z,99861.69
2022-09-15T15:00:06.131Z,99854.13
2022-09-15T15:02:49.672Z,99830.84
2022-09-15T15:05:23.078Z,99846.75
2022-09-15T15:07:52.536Z,99831.22
2022-09-15T15:10:25.802Z,99807.13
2022-09-15T15:12:59.972Z,99835.91
2022-09-15T15:15:27.242Z,99805.44
2022-09-15T15:17:54.680Z,99830.78
2022-09-15T15:20:27.525Z,99821.44
2022-09-15T15:23:26.577Z,99820.31
2022-09-15T15:26:33.121Z,99808.22
2022-09-15T15:28:59.827Z,99805.69
2022-09-15T15:31:28.523Z,99826.78
2022-09-15T15:34:24.361Z,99831.00
2022-09-15T15:36:50.777Z,99813.53
2022-09-15T15:39:27.027Z,99857.63
2022-09-15T15:42:05.552Z,99874.41
2022-09-15T15:44:34.331Z,99815.03
2022-09-15T15:47:03.053Z,99862.97
2022-09-15T15:49:33.136Z,99820.75
2022-09-15T15:52:01.689Z,99836.47
2022-09-15T15:54:28.649Z,99831.28
2022-09-15T15:56:57.705Z,99842.47
2022-09-15T15:59:24.119Z,99829.78
2022-09-15T16:01:52.995Z,99867.50
2022-09-15T16:04:19.545Z,99873.44
2022-09-15T16:06:46.271Z,99870.25
2022-09-15T16:09:17.177Z,99864.22
2022-09-15T16:11:43.572Z,99860.72
2022-09-15T16:14:13.911Z,99860.31
2022-09-15T16:16:42.796Z,99870.94
2022-09-15T16:19:09.642Z,99877.97
2022-09-15T16:21:41.679Z,99852.44
2022-09-15T16:24:15.174Z,99863.81
2022-09-15T16:26:43.072Z,99854.22
2022-09-15T16:29:09.567Z,99861.56
2022-09-15T16:31:36.390Z,99859.72
2022-09-15T16:34:02.815Z,99850.25
2022-09-15T16:36:33.162Z,99892.41
2022-09-15T16:39:01.837Z,99859.38
2022-09-15T16:41:28.241Z,99853.75
2022-09-15T16:43:55.966Z,99871.75
2022-09-15T16:46:22.425Z,99878.84
2022-09-15T16:48:48.897Z,99876.09
2022-09-15T16:51:27.359Z,99870.56
2022-09-15T16:53:56.187Z,99858.88
2022-09-15T16:56:22.697Z,99873.03
2022-09-15T16:58:49.391Z,99882.91
2022-09-15T17:01:20.613Z,99866.41
2022-09-15T17:03:47.995Z,99858.47
2022-09-15T17:06:16.307Z,99859.44
2022-09-15T17:08:46.097Z,99850.22
2022-09-15T17:11:19.690Z,99881.53
2022-09-15T17:13:49.672Z,99871.63
2022-09-15T17:16:21.970Z,99873.41
2022-09-15T17:18:49.003Z,99874.41
2022-09-15T17:21:17.025Z,99876.81
2022-09-15T17:23:49.197Z,99879.00
2022-09-15T17:26:20.045Z,99878.25
2022-09-15T17:28:46.679Z,99888.13
2022-09-15T17:31:19.601Z,99865.84
2022-09-15T17:33:46.348Z,99884.69
2022-09-15T17:36:13.368Z,99878.06
2022-09-15T17:38:41.010Z,99883.22
2022-09-15T17:41:14.148Z,99875.56
2022-09-15T17:43:44.708Z,99884.19
2022-09-15T17:46:11.733Z,99877.59
2022-09-15T17:48:39.234Z,99868.34
2022-09-15T17:51:14.217Z,99867.91
2022-09-15T17:53:40.660Z,99873.41
2022-09-15T17:56:07.044Z,99867.41
2022-09-15T17:58:33.485Z,99872.56
2022-09-15T18:01:05.854Z,99864.16
2022-09-15T18:03:34.924Z,99864.63
2022-09-15T18:06:07.981Z,99867.88
2022-09-15T18:08:35.778Z,99877.66
2022-09-15T18:11:03.200Z,99871.66
2022-09-15T18:13:30.126Z,99878.47
2022-09-15T18:15:57.787Z,99876.66
2022-09-15T18:18:27.962Z,99879.88
2022-09-15T18:20:56.685Z,99878.09
2022-09-15T18:23:24.904Z,99872.44
2022-09-15T18:25:51.621Z,99872.06
2022-09-15T18:28:18.499Z,99876.00
2022-09-15T18:30:47.723Z,99871.81
2022-09-15T18:33:22.881Z,99876.25
2022-09-15T18:35:52.943Z,99889.22
2022-09-15T18:38:20.215Z,99885.88
2022-09-15T18:40:53.508Z,99889.97
2022-09-15T18:43:20.224Z,99888.63
2022-09-15T18:45:49.350Z,99895.88
2022-09-15T18:48:16.057Z,99898.03
2022-09-15T18:50:45.780Z,99907.81
2022-09-15T18:53:14.782Z,99898.94
2022-09-15T18:55:42.057Z,99906.81
2022-09-15T18:58:11.643Z,99900.94
2022-09-15T19:00:40.594Z,99909.78
2022-09-15T19:03:09.409Z,99909.34
2022-09-15T19:05:40.953Z,99910.25
2022-09-15T19:08:09.068Z,99911.06
2022-09-15T19:10:35.911Z,99915.97
2022-09-15T19:13:02.280Z,99913.59
2022-09-15T19:15:31.283Z,99918.72
2022-09-15T19:17:57.755Z,99920.25
2022-09-15T19:20:26.618Z,99920.94
2022-09-15T19:22:53.041Z,99925.06
2022-09-15T19:25:19.519Z,99921.94
2022-09-15T19:27:49.284Z,99926.41
2022-09-15T19:30:15.635Z,99920.31
2022-09-15T19:32:42.943Z,99931.75
2022-09-15T19:35:14.079Z,99932.19
2022-09-15T19:37:42.010Z,99934.78
2022-09-15T19:40:11.979Z,99933.72
2022-09-15T19:42:39.730Z,99933.72
2022-09-15T19:45:07.569Z,99937.53
2022-09-15T19:47:36.932Z,99934.94
2022-09-15T19:50:05.785Z,99937.94
2022-09-15T19:52:34.976Z,99922.69
2022-09-15T19:55:04.835Z,99928.69
2022-09-15T19:57:33.608Z,99925.94
2022-09-15T19:59:59.985Z,99936.03
2022-09-15T20:02:26.624Z,99934.06
2022-09-15T20:04:53.787Z,99942.59
2022-09-15T20:07:20.125Z,99946.84
2022-09-15T20:09:54.422Z,99950.16
2022-09-15T20:14:55.131Z,99938.84
2022-09-15T20:17:21.573Z,99937.72
2022-09-15T20:19:48.420Z,99949.47
2022-09-15T20:22:14.850Z,99935.81
2022-09-15T20:24:41.284Z,99937.06
2022-09-15T20:27:08.793Z,99942.66
2022-09-15T20:29:35.407Z,99945.78
2022-09-15T20:32:04.337Z,99953.53
2022-09-15T20:34:30.733Z,99958.00
2022-09-15T20:36:57.866Z,99950.53
2022-09-15T20:39:27.292Z,99964.88
2022-09-15T20:41:54.317Z,99952.56
2022-09-15T20:44:20.674Z,99961.88
2022-09-15T20:46:49.503Z,99967.31
2022-09-15T20:49:15.956Z,99960.59
2022-09-15T20:51:45.298Z,99969.44
2022-09-15T20:54:11.672Z,99971.94
2022-09-15T20:56:38.182Z,99967.34
2022-09-15T20:59:05.949Z,99977.06
2022-09-15T21:01:36.255Z,99977.66
2022-09-15T21:04:03.189Z,99974.69
2022-09-15T21:06:31.542Z,99973.25
2022-09-15T21:09:00.304Z,99971.47
2022-09-15T21:11:27.453Z,99980.41
2022-09-15T21:13:57.721Z,99987.59
2022-09-15T21:16:27.906Z,99977.19
2022-09-15T21:18:55.967Z,99985.69
2022-09-15T21:21:29.685Z,99979.81
2022-09-15T21:24:03.533Z,99981.09
2022-09-15T21:26:32.950Z,99984.09
2022-09-15T21:28:59.689Z,99990.91
2022-09-15T21:31:33.135Z,99985.16
2022-09-15T21:33:59.869Z,99991.97
2022-09-15T21:36:29.463Z,99996.25
2022-09-15T21:38:57.418Z,99988.00
2022-09-15T21:41:26.373Z,99988.00
2022-09-15T21:43:55.802Z,99990.84
2022-09-15T21:46:25.076Z,99996.78
2022-09-15T21:48:51.837Z,99996.19
2022-09-15T21:51:24.237Z,99995.81
2022-09-15T21:53:53.472Z,100007.63
2022-09-15T21:56:20.863Z,99998.38
2022-09-15T21:58:49.941Z,100010.66
2022-09-15T22:01:22.159Z,100014.09
2022-09-15T22:04:02.583Z,100011.81
2022-09-15T22:06:32.368Z,100009.91
2022-09-15T22:09:00.101Z,100009.06
2022-09-15T22:11:29.161Z,100013.13
2022-09-15T22:13:55.751Z,100015.00
2022-09-15T22:16:24.630Z,100013.31
2022-09-15T22:18:57.055Z,100014.63
2022-09-15T22:21:26.476Z,100011.88
2022-09-15T22:23:57.748Z,100019.03
2022-09-15T22:26:29.165Z,100020.13
2022-09-15T22:28:56.416Z,100021.56
2022-09-15T22:31:23.986Z,100018.44
2022-09-15T22:33:51.480Z,100019.19
2022-09-15T22:36:30.337Z,100016.28
2022-09-15T22:39:05.828Z,100012.25
2022-09-15T22:41:39.165Z,100029.59
2022-09-15T22:44:16.612Z,100020.25
2022-09-15T22:46:43.037Z,100024.69
2022-09-15T22:49:09.402Z,100027.28
2022-09-15T22:51:35.886Z,100031.13
2022-09-15T22:54:05.941Z,100030.66
2022-09-15T22:56:32.419Z,100027.44
2022-09-15T22:58:58.905Z,100020.03
2022-09-15T23:01:27.943Z,100017.59
2022-09-15T23:04:04.017Z,100018.22
2022-09-15T23:06:37.326Z,100021.19
2022-09-15T23:09:09.610Z,100022.41
2022-09-15T23:11:39.635Z,100014.47
2022-09-15T23:14:17.203Z,100026.91
2022-09-15T23:16:44.291Z,100023.34
2022-09-15T23:19:13.997Z,100031.34
2022-09-15T23:21:40.469Z,100020.59
2022-09-15T23:24:08.624Z,100022.94
2022-09-15T23:26:35.018Z,100028.66
2022-09-15T23:29:01.356Z,100033.53
2022-09-15T23:31:30.240Z,100029.59
2022-09-15T23:33:59.288Z,100025.59
2022-09-15T23:36:25.642Z,100022.22
2022-09-15T23:38:52.031Z,100024.81
2022-09-15T23:41:23.525Z,100022.75
2022-09-15T23:43:50.224Z,100020.22
2022-09-15T23:46:16.964Z,100039.44
2022-09-15T23:48:46.264Z,100027.63
2022-09-15T23:51:12.699Z,100029.97
2022-09-15T23:53:39.409Z,100030.84
2022-09-15T23:56:08.454Z,100043.13
2022-09-15T23:58:34.862Z,100047.94
